Time,TemperatureF,DewpointF,PressureIn,WindDirection,WindDirectionDegrees,WindSpeedMPH,WindSpeedGustMPH,Humidity,HourlyPrecipIn,Conditions,Clouds,dailyrainin,SoftwareType,DateUTC
2013-01-29 00:04:00,48.9,45.2,30.05,South,178,5.8,0.0,87,0.00,RA,,0.00,WeatherDisplay:10.37,2013-01-29 05:04:00,
2013-01-29 00:05:00,49.0,45.3,30.05,West,275,5.8,5.8,87,0.00,RA,,0.00,WeatherDisplay:10.37,2013-01-29 05:05:00,
2013-01-29 00:10:00,49.0,45.3,30.05,SW,233,4.6,4.6,87,0.00,RA,,0.00,WeatherDisplay:10.37,2013-01-29 05:10:00,
2013-01-29 00:15:00,49.0,45.3,30.05,SW,216,3.5,3.5,87,0.00,RA,,0.00,WeatherDisplay:10.37,2013-01-29 05:15:00,
2013-01-29 00:20:00,49.2,45.8,30.05,WSW,241,4.6,4.6,88,0.00,CLR,,0.00,WeatherDisplay:10.37,2013-01-29 05:20:00,
2013-01-29 00:25:00,49.4,46.0,30.05,South,172,3.5,3.5,88,0.00,CLR,,0.00,WeatherDisplay:10.37,2013-01-29 05:25:00,
2013-01-29 00:30:00,49.6,45.9,30.05,SSW,200,3.5,3.5,87,0.00,CLR,,0.00,WeatherDisplay:10.37,2013-01-29 05:30:00,
2013-01-29 00:35:00,49.6,45.9,30.05,SSW,206,4.6,4.6,87,0.00,CLR,,0.00,WeatherDisplay:10.37,2013-01-29 05:35:00,
2013-01-29 00:40:00,49.7,46.3,30.05,SSW,210,6.6,6.6,88,0.00,CLR,,0.00,WeatherDisplay:10.37,2013-01-29 05:40:00,
2013-01-29 00:45:00,49.7,46.3,30.05,SSW,198,5.8,5.8,88,0.00,CLR,,0.00,WeatherDisplay:10.37,2013-01-29 05:45:00,
2013-01-29 00:50:00,49.6,45.9,30.05,South,188,4.2,4.2,87,0.00,CLR,,0.00,WeatherDisplay:10.37,2013-01-29 05:50:00,
2013-01-29 00:55:00,49.5,46.1,30.05,SW,233,6.9,6.9,88,0.00,CLR,,0.00,WeatherDisplay:10.37,2013-01-29 05:55:00,
2013-01-29 01:00:00,49.6,46.2,30.05,SSW,210,5.8,5.8,88,0.00,CLR,,0.00,WeatherDisplay:10.37,2013-01-29 06:00:00,
2013-01-29 01:05:00,49.6,46.2,30.05,SSW,209,4.4,4.4,88,0.00,CLR,,0.00,WeatherDisplay:10.37,2013-01-29 06:05:00,
2013-01-29 01:10:00,49.6,46.5,30.05,SW,227,6.9,6.9,89,0.00,CLR,,0.00,WeatherDisplay:10.37,2013-01-29 06:10:00,
2013-01-29 01:15:00,49.6,46.2,30.05,SW,232,5.8,5.8,88,0.00,CLR,,0.00,WeatherDisplay:10.37,2013-01-29 06:15:00,
2013-01-29 01:20:00,49.7,46.6,30.05,WNW,296,4.6,4.6,89,0.00,CLR,,0.00,WeatherDisplay:10.37,2013-01-29 06:20:00,
2013-01-29 01:25:00,49.7,46.6,30.04,South,178,8.1,8.1,89,0.00,CLR,,0.00,WeatherDisplay:10.37,2013-01-29 06:25:00,
2013-01-29 01:30:00,49.8,47.0,30.04,WSW,250,4.0,4.0,90,0.00,CLR,,0.00,WeatherDisplay:10.37,2013-01-29 06:30:00,
2013-01-29 01:35:00,50.0,46.9,30.04,SSW,205,3.8,3.8,89,0.00,CLR,,0.00,WeatherDisplay:10.37,2013-01-29 06:35:00,
2013-01-29 01:40:00,50.0,46.9,30.05,West,261,2.3,2.3,89,0.00,CLR,,0.00,WeatherDisplay:10.37,2013-01-29 06:40:00,
2013-01-29 01:45:00,50.0,46.9,30.05,SSE,154,2.3,0.0,89,0.00,CLR,,0.00,WeatherDisplay:10.37,2013-01-29 06:45:00,
2013-01-29 01:50:00,50.0,47.2,30.05,SSW,203,1.1,1.1,90,0.00,CLR,,0.00,WeatherDisplay:10.37,2013-01-29 06:50:00,
2013-01-29 01:55:00,49.8,46.4,30.05,SSE,164,3.5,3.5,88,0.00,CLR,,0.00,WeatherDisplay:10.37,2013-01-29 06:55:00,
2013-01-29 02:00:00,48.7,45.3,30.05,South,185,4.2,4.2,88,0.00,CLR,,0.00,WeatherDisplay:10.37,2013-01-29 07:00:00,
2013-01-29 02:05:00,48.0,45.2,30.05,SSE,161,5.2,5.2,90,0.00,CLR,,0.00,WeatherDisplay:10.37,2013-01-29 07:05:00,
2013-01-29 02:10:00,47.8,45.3,30.06,SSE,155,4.6,4.6,91,0.00,CLR,,0.00,WeatherDisplay:10.37,2013-01-29 07:10:00,
2013-01-29 02:15:00,47.6,45.1,30.06,SSE,147,0.0,0.0,91,0.00,CLR,,0.00,WeatherDisplay:10.37,2013-01-29 07:15:00,
2013-01-29 02:20:00,47.5,45.3,30.06,SSE,147,1.1,1.1,92,0.00,CLR,,0.00,WeatherDisplay:10.37,2013-01-29 07:20:00,
2013-01-29 02:25:00,47.6,45.7,30.06,West,271,2.3,2.3,93,0.00,CLR,,0.00,WeatherDisplay:10.37,2013-01-29 07:25:00,
2013-01-29 02:30:00,48.0,46.1,30.06,SSE,161,3.5,3.5,93,0.00,CLR,,0.00,WeatherDisplay:10.37,2013-01-29 07:30:00,
2013-01-29 02:35:00,48.5,46.3,30.06,SW,215,3.5,3.5,92,0.00,CLR,,0.00,WeatherDisplay:10.37,2013-01-29 07:35:00,
2013-01-29 02:40:00,49.2,47.0,30.06,SSW,202,2.3,0.0,92,0.00,CLR,,0.00,WeatherDisplay:10.37,2013-01-29 07:40:00,
2013-01-29 02:45:00,49.8,47.3,30.06,SW,227,3.5,3.5,91,0.00,CLR,,0.00,WeatherDisplay:10.37,2013-01-29 07:45:00,
2013-01-29 02:50:00,50.0,47.2,30.06,SE,140,3.6,3.9,90,0.00,CLR,,0.00,WeatherDisplay:10.37,2013-01-29 07:50:00,
2013-01-29 02:55:00,50.1,47.3,30.06,SW,217,4.6,4.6,90,0.00,CLR,,0.00,WeatherDisplay:10.37,2013-01-29 07:55:00,
2013-01-29 03:00:00,50.1,47.3,30.06,SSE,162,2.3,2.3,90,0.00,CLR,,0.00,WeatherDisplay:10.37,2013-01-29 08:00:00,
2013-01-29 03:05:00,49.6,46.8,30.06,SSE,167,3.7,3.7,90,0.00,CLR,,0.00,WeatherDisplay:10.37,2013-01-29 08:05:00,
2013-01-29 03:11:00,49.3,46.5,30.06,SSE,160,4.8,4.8,90,0.00,CLR,,0.00,WeatherDisplay:10.37,2013-01-29 08:11:00,
2013-01-29 03:16:00,49.0,46.5,30.06,SSE,165,4.6,4.6,91,0.00,CLR,,0.00,WeatherDisplay:10.37,2013-01-29 08:16:00,
2013-01-29 03:21:00,48.9,46.7,30.06,South,171,2.5,2.5,92,0.00,CLR,,0.00,WeatherDisplay:10.37,2013-01-29 08:21:00,
2013-01-29 03:26:00,49.1,46.6,30.06,SSW,193,3.5,3.5,91,0.00,CLR,,0.00,WeatherDisplay:10.37,2013-01-29 08:26:00,
2013-01-29 03:31:00,49.1,46.9,30.06,SSW,195,4.6,4.6,92,0.00,CLR,,0.00,WeatherDisplay:10.37,2013-01-29 08:31:00,
2013-01-29 03:36:00,49.2,47.0,30.06,SW,222,5.8,5.8,92,0.00,CLR,,0.00,WeatherDisplay:10.37,2013-01-29 08:36:00,
2013-01-29 03:41:00,49.6,47.1,30.05,South,169,4.6,4.6,91,0.00,CLR,,0.00,WeatherDisplay:10.37,2013-01-29 08:41:00,
2013-01-29 03:46:00,49.7,46.9,30.05,SSW,209,4.6,4.6,90,0.00,CLR,,0.00,WeatherDisplay:10.37,2013-01-29 08:46:00,
2013-01-29 03:51:00,49.6,47.1,30.05,South,175,3.5,3.5,91,0.00,CLR,,0.00,WeatherDisplay:10.37,2013-01-29 08:51:00,
2013-01-29 03:56:00,49.7,47.2,30.05,WSW,256,3.5,3.5,91,0.00,CLR,,0.00,WeatherDisplay:10.37,2013-01-29 08:56:00,
2013-01-29 04:01:00,49.8,47.0,30.05,South,179,2.3,2.3,90,0.00,CLR,,0.00,WeatherDisplay:10.37,2013-01-29 09:01:00,
2013-01-29 04:06:00,49.6,46.8,30.05,SSW,202,0.0,0.0,90,0.00,CLR,,0.00,WeatherDisplay:10.37,2013-01-29 09:06:00,
2013-01-29 04:11:00,49.2,46.1,30.06,SW,219,0.0,0.0,89,0.00,CLR,,0.00,WeatherDisplay:10.37,2013-01-29 09:11:00,
2013-01-29 04:16:00,48.6,45.8,30.05,SW,219,0.0,0.0,90,0.00,CLR,,0.00,WeatherDisplay:10.37,2013-01-29 09:16:00,
2013-01-29 04:21:00,48.0,46.1,30.04,South,171,0.0,0.0,93,0.00,CLR,,0.00,WeatherDisplay:10.37,2013-01-29 09:21:00,
2013-01-29 04:26:00,47.5,45.6,30.05,NE,40,0.0,0.0,93,0.00,CLR,,0.00,WeatherDisplay:10.37,2013-01-29 09:26:00,
2013-01-29 04:31:00,46.9,45.0,30.05,NE,40,0.0,0.0,93,0.00,CLR,,0.00,WeatherDisplay:10.37,2013-01-29 09:31:00,
2013-01-29 04:36:00,46.5,44.9,30.05,NE,40,0.0,0.0,94,0.00,CLR,,0.00,WeatherDisplay:10.37,2013-01-29 09:36:00,
2013-01-29 04:41:00,46.2,44.8,30.05,NE,40,0.0,0.0,95,0.00,CLR,,0.00,WeatherDisplay:10.37,2013-01-29 09:41:00,
2013-01-29 04:46:00,46.1,44.7,30.05,NE,40,0.0,0.0,95,0.00,CLR,,0.00,WeatherDisplay:10.37,2013-01-29 09:46:00,
2013-01-29 04:51:00,45.9,44.5,30.06,NE,40,0.0,0.0,95,0.00,CLR,,0.00,WeatherDisplay:10.37,2013-01-29 09:51:00,
2013-01-29 04:56:00,45.8,44.7,30.06,SW,229,2.3,2.3,96,0.00,CLR,,0.00,WeatherDisplay:10.37,2013-01-29 09:56:00,
2013-01-29 05:01:00,45.8,44.7,30.06,South,176,0.0,0.0,96,0.00,CLR,,0.00,WeatherDisplay:10.37,2013-01-29 10:01:00,
2013-01-29 05:06:00,45.9,44.5,30.06,South,176,0.0,0.0,95,0.00,CLR,,0.00,WeatherDisplay:10.37,2013-01-29 10:06:00,
2013-01-29 05:11:00,46.1,45.0,30.06,South,176,0.0,0.0,96,0.00,CLR,,0.00,WeatherDisplay:10.37,2013-01-29 10:11:00,
2013-01-29 05:16:00,46.2,45.1,30.06,South,176,0.0,0.0,96,0.00,CLR,,0.00,WeatherDisplay:10.37,2013-01-29 10:16:00,
2013-01-29 05:21:00,46.4,45.3,30.06,SW,233,3.8,3.8,96,0.00,CLR,,0.00,WeatherDisplay:10.37,2013-01-29 10:21:00,
2013-01-29 05:26:00,46.6,45.5,30.06,South,178,3.5,3.5,96,0.00,CLR,,0.00,WeatherDisplay:10.37,2013-01-29 10:26:00,
2013-01-29 05:31:00,46.7,45.3,30.06,SW,232,0.0,0.0,95,0.00,CLR,,0.00,WeatherDisplay:10.37,2013-01-29 10:31:00,
2013-01-29 05:36:00,46.5,44.9,30.06,SW,232,0.0,0.0,94,0.00,CLR,,0.00,WeatherDisplay:10.37,2013-01-29 10:36:00,
2013-01-29 05:41:00,46.3,44.9,30.06,SW,232,0.0,0.0,95,0.00,CLR,,0.00,WeatherDisplay:10.37,2013-01-29 10:41:00,
2013-01-29 05:46:00,46.1,44.7,30.06,SSE,168,0.0,0.0,95,0.00,CLR,,0.00,WeatherDisplay:10.37,2013-01-29 10:46:00,
2013-01-29 05:51:00,46.1,45.0,30.06,SSE,168,0.0,0.0,96,0.00,CLR,,0.00,WeatherDisplay:10.37,2013-01-29 10:51:00,
2013-01-29 05:56:00,46.0,44.9,30.06,SSE,168,0.0,0.0,96,0.00,CLR,,0.00,WeatherDisplay:10.37,2013-01-29 10:56:00,
2013-01-29 06:01:00,45.9,44.8,30.07,SSW,209,0.0,0.0,96,0.00,CLR,,0.00,WeatherDisplay:10.37,2013-01-29 11:01:00,
2013-01-29 06:06:00,46.0,44.9,30.07,SSW,213,2.3,2.3,96,0.00,CLR,,0.00,WeatherDisplay:10.37,2013-01-29 11:06:00,
2013-01-29 06:11:00,46.0,44.9,30.07,SW,232,3.0,3.0,96,0.00,CLR,,0.00,WeatherDisplay:10.37,2013-01-29 11:11:00,
2013-01-29 06:16:00,46.1,45.0,30.07,South,186,2.3,2.3,96,0.00,CLR,,0.00,WeatherDisplay:10.37,2013-01-29 11:16:00,
2013-01-29 06:21:00,46.1,45.0,30.07,South,186,0.0,0.0,96,0.00,CLR,,0.00,WeatherDisplay:10.37,2013-01-29 11:21:00,
2013-01-29 06:26:00,46.0,44.9,30.07,South,186,0.0,0.0,96,0.00,CLR,,0.00,WeatherDisplay:10.37,2013-01-29 11:26:00,
2013-01-29 06:31:00,45.8,44.7,30.06,South,186,0.0,0.0,96,0.00,CLR,,0.00,WeatherDisplay:10.37,2013-01-29 11:31:00,
2013-01-29 06:36:00,45.8,44.7,30.06,SSW,198,3.8,3.8,96,0.00,CLR,,0.00,WeatherDisplay:10.37,2013-01-29 11:36:00,
2013-01-29 06:41:00,45.8,45.0,30.06,SSW,203,3.5,3.5,97,0.00,CLR,,0.00,WeatherDisplay:10.37,2013-01-29 11:41:00,
2013-01-29 06:46:00,46.1,45.0,30.06,SSW,206,3.5,3.5,96,0.00,CLR,,0.00,WeatherDisplay:10.37,2013-01-29 11:46:00,
2013-01-29 06:51:00,46.4,45.3,30.06,SW,215,3.5,3.5,96,0.00,CLR,,0.00,WeatherDisplay:10.37,2013-01-29 11:51:00,
2013-01-29 06:56:00,46.5,45.4,30.06,SW,224,2.1,2.1,96,0.00,CLR,,0.00,WeatherDisplay:10.37,2013-01-29 11:56:00,
2013-01-29 07:01:00,46.2,44.8,30.07,SSW,202,1.9,1.9,95,0.00,CLR,,0.00,WeatherDisplay:10.37,2013-01-29 12:01:00,
2013-01-29 07:06:00,45.9,44.8,30.07,SW,220,3.5,3.5,96,0.00,CLR,,0.00,WeatherDisplay:10.37,2013-01-29 12:06:00,
2013-01-29 07:11:00,45.8,44.7,30.08,SSW,213,1.3,1.3,96,0.00,CLR,,0.00,WeatherDisplay:10.37,2013-01-29 12:11:00,
2013-01-29 07:16:00,45.8,44.7,30.07,SSE,162,0.0,0.0,96,0.00,CLR,,0.00,WeatherDisplay:10.37,2013-01-29 12:16:00,
2013-01-29 07:21:00,45.7,44.6,30.08,SSE,162,0.0,0.0,96,0.00,CLR,,0.00,WeatherDisplay:10.37,2013-01-29 12:21:00,
2013-01-29 07:26:00,45.4,44.3,30.08,SSE,162,0.0,0.0,96,0.00,CLR,,0.00,WeatherDisplay:10.37,2013-01-29 12:26:00,
2013-01-29 07:31:00,45.4,44.6,30.08,SSE,162,4.6,4.6,97,0.00,CLR,,0.00,WeatherDisplay:10.37,2013-01-29 12:31:00,
2013-01-29 07:36:00,45.8,45.0,30.08,SSW,192,2.3,2.3,97,0.00,CLR,,0.00,WeatherDisplay:10.37,2013-01-29 12:36:00,
2013-01-29 07:41:00,46.0,44.9,30.08,SW,215,3.5,3.5,96,0.00,CLR,,0.00,WeatherDisplay:10.37,2013-01-29 12:41:00,
2013-01-29 07:46:00,46.1,45.0,30.08,SSE,165,0.0,0.7,96,0.00,CLR,,0.00,WeatherDisplay:10.37,2013-01-29 12:46:00,
2013-01-29 07:51:00,46.1,45.0,30.08,WSW,247,0.0,0.0,96,0.00,CLR,,0.00,WeatherDisplay:10.37,2013-01-29 12:51:00,
2013-01-29 07:56:00,46.1,45.0,30.09,SSW,210,0.0,0.0,96,0.00,CLR,,0.00,WeatherDisplay:10.37,2013-01-29 12:56:00,
2013-01-29 08:01:00,46.1,45.0,30.09,SSW,210,0.0,0.0,96,0.00,CLR,,0.00,WeatherDisplay:10.37,2013-01-29 13:01:00,
2013-01-29 08:06:00,46.1,45.0,30.09,SSE,154,3.5,3.5,96,0.00,CLR,,0.00,WeatherDisplay:10.37,2013-01-29 13:06:00,
2013-01-29 08:11:00,46.2,45.1,30.09,SSW,196,0.0,0.0,96,0.00,CLR,,0.00,WeatherDisplay:10.37,2013-01-29 13:11:00,
2013-01-29 08:16:00,46.0,43.5,30.09,SSW,196,0.0,0.0,91,0.00,CLR,,0.00,WeatherDisplay:10.37,2013-01-29 13:16:00,
2013-01-29 08:21:00,45.2,44.1,30.09,SSW,199,3.5,3.5,96,0.00,CLR,,0.00,WeatherDisplay:10.37,2013-01-29 13:21:00,
2013-01-29 08:26:00,44.9,43.3,30.09,SSW,205,0.0,0.0,94,0.00,CLR,,0.00,WeatherDisplay:10.37,2013-01-29 13:26:00,
2013-01-29 08:31:00,44.2,43.1,30.09,SSW,205,0.0,0.0,96,0.00,CLR,,0.00,WeatherDisplay:10.37,2013-01-29 13:31:00,
2013-01-29 08:36:00,44.9,44.1,30.09,South,179,2.3,2.3,97,0.00,CLR,,0.00,WeatherDisplay:10.37,2013-01-29 13:36:00,
2013-01-29 08:41:00,45.6,44.8,30.09,SSW,213,1.1,0.0,97,0.00,CLR,,0.00,WeatherDisplay:10.37,2013-01-29 13:41:00,
2013-01-29 08:46:00,45.9,44.8,30.10,SSW,213,0.0,0.0,96,0.00,CLR,,0.00,WeatherDisplay:10.37,2013-01-29 13:46:00,
2013-01-29 08:51:00,45.3,44.0,30.10,SSW,213,0.0,0.0,95,0.00,CLR,,0.00,WeatherDisplay:10.37,2013-01-29 13:51:00,
2013-01-29 08:57:00,45.1,44.0,30.09,SSW,213,0.0,0.0,96,0.00,CLR,,0.00,WeatherDisplay:10.37,2013-01-29 13:57:00,
2013-01-29 09:02:00,45.2,44.1,30.10,SSW,213,0.0,0.0,96,0.00,CLR,,0.00,WeatherDisplay:10.37,2013-01-29 14:02:00,
2013-01-29 09:07:00,46.2,45.4,30.09,SSW,213,0.0,0.0,97,0.00,CLR,,0.00,WeatherDisplay:10.37,2013-01-29 14:07:00,
2013-01-29 09:12:00,47.6,46.5,30.09,South,185,4.6,4.6,96,0.00,CLR,,0.00,WeatherDisplay:10.37,2013-01-29 14:12:00,
2013-01-29 09:17:00,49.0,47.6,30.09,West,277,2.3,2.3,95,0.00,CLR,,0.00,WeatherDisplay:10.37,2013-01-29 14:17:00,
2013-01-29 09:22:00,50.0,47.8,30.09,NW,325,5.8,5.8,92,0.00,CLR,,0.00,WeatherDisplay:10.37,2013-01-29 14:22:00,
2013-01-29 09:27:00,50.4,47.9,30.09,NW,306,0.0,0.0,91,0.00,CLR,,0.00,WeatherDisplay:10.37,2013-01-29 14:27:00,
2013-01-29 09:32:00,50.7,48.5,30.09,SE,133,2.3,2.3,92,0.00,CLR,,0.00,WeatherDisplay:10.37,2013-01-29 14:32:00,
2013-01-29 09:37:00,51.1,48.6,30.09,SE,133,0.0,0.0,91,0.00,CLR,,0.00,WeatherDisplay:10.37,2013-01-29 14:37:00,
2013-01-29 09:42:00,51.8,49.0,30.09,SSW,203,2.3,2.3,90,0.00,CLR,,0.00,WeatherDisplay:10.37,2013-01-29 14:42:00,
2013-01-29 09:47:00,52.6,49.1,30.08,SW,230,3.5,3.5,88,0.00,CLR,,0.00,WeatherDisplay:10.37,2013-01-29 14:47:00,
2013-01-29 09:52:00,53.2,49.7,30.09,West,281,2.3,2.3,88,0.00,CLR,,0.00,WeatherDisplay:10.37,2013-01-29 14:52:00,
2013-01-29 09:57:00,54.0,50.2,30.10,WNW,288,4.6,4.6,87,0.00,CLR,,0.00,WeatherDisplay:10.37,2013-01-29 14:57:00,
2013-01-29 10:02:00,54.8,50.7,30.09,West,272,4.6,4.6,86,0.00,CLR,,0.00,WeatherDisplay:10.37,2013-01-29 15:02:00,
2013-01-29 10:07:00,55.5,51.1,30.09,WNW,298,3.5,3.5,85,0.00,CLR,,0.00,WeatherDisplay:10.37,2013-01-29 15:07:00,
2013-01-29 10:12:00,56.0,51.2,30.09,WSW,237,5.0,5.0,84,0.00,CLR,,0.00,WeatherDisplay:10.37,2013-01-29 15:12:00,
2013-01-29 10:17:00,56.6,51.5,30.09,NW,316,2.7,2.7,83,0.00,CLR,,0.00,WeatherDisplay:10.37,2013-01-29 15:17:00,
2013-01-29 10:22:00,57.3,51.9,30.09,SW,216,4.6,4.6,82,0.00,CLR,,0.00,WeatherDisplay:10.37,2013-01-29 15:22:00,
2013-01-29 10:27:00,57.8,51.7,30.09,WNW,282,4.6,4.6,80,0.00,CLR,,0.00,WeatherDisplay:10.37,2013-01-29 15:27:00,
2013-01-29 10:32:00,58.1,52.3,30.09,SSW,206,2.3,2.3,81,0.00,CLR,,0.00,WeatherDisplay:10.37,2013-01-29 15:32:00,
2013-01-29 10:37:00,58.5,52.0,30.08,West,261,5.8,5.8,79,0.00,CLR,,0.00,WeatherDisplay:10.37,2013-01-29 15:37:00,
2013-01-29 10:42:00,58.8,52.0,30.08,West,265,3.5,3.5,78,0.00,CLR,,0.00,WeatherDisplay:10.37,2013-01-29 15:42:00,
2013-01-29 10:47:00,59.1,52.2,30.08,WNW,285,3.5,3.5,78,0.00,CLR,,0.00,WeatherDisplay:10.37,2013-01-29 15:47:00,
2013-01-29 10:52:00,59.5,52.3,30.08,SW,217,3.5,3.5,77,0.00,CLR,,0.00,WeatherDisplay:10.37,2013-01-29 15:52:00,
2013-01-29 10:57:00,59.8,52.2,30.08,West,281,4.5,4.5,76,0.00,CLR,,0.00,WeatherDisplay:10.37,2013-01-29 15:57:00,
2013-01-29 11:02:00,60.3,52.7,30.07,West,265,2.3,2.3,76,0.00,CLR,,0.00,WeatherDisplay:10.37,2013-01-29 16:02:00,
2013-01-29 11:07:00,60.6,52.6,30.07,WSW,253,4.6,4.6,75,0.00,CLR,,0.00,WeatherDisplay:10.37,2013-01-29 16:07:00,
2013-01-29 11:12:00,60.9,52.6,30.07,WSW,247,4.6,4.6,74,0.00,CLR,,0.00,WeatherDisplay:10.37,2013-01-29 16:12:00,
2013-01-29 11:17:00,61.5,52.8,30.07,WSW,244,4.6,4.6,73,0.00,CLR,,0.00,WeatherDisplay:10.37,2013-01-29 16:17:00,
2013-01-29 11:22:00,61.7,53.3,30.07,WNW,288,4.6,4.6,74,0.00,CLR,,0.00,WeatherDisplay:10.37,2013-01-29 16:22:00,
2013-01-29 11:27:00,61.9,52.8,30.06,NW,319,4.6,4.6,72,0.00,CLR,,0.00,WeatherDisplay:10.37,2013-01-29 16:27:00,
2013-01-29 11:32:00,62.4,54.0,30.07,NNE,25,1.9,1.9,74,0.00,CLR,,0.00,WeatherDisplay:10.37,2013-01-29 16:32:00,
2013-01-29 11:37:00,63.1,53.2,30.06,SW,226,3.5,4.1,70,0.00,CLR,,0.00,WeatherDisplay:10.37,2013-01-29 16:37:00,
2013-01-29 11:42:00,63.4,53.0,30.06,WSW,251,4.8,4.8,69,0.00,CLR,,0.00,WeatherDisplay:10.37,2013-01-29 16:42:00,
2013-01-29 11:47:00,63.7,53.3,30.06,WSW,243,8.1,8.1,69,0.00,CLR,,0.00,WeatherDisplay:10.37,2013-01-29 16:47:00,
2013-01-29 11:52:00,64.2,53.4,30.06,SW,234,8.1,8.1,68,0.00,CLR,,0.00,WeatherDisplay:10.37,2013-01-29 16:52:00,
2013-01-29 11:57:00,64.3,53.1,30.05,WSW,244,5.8,5.8,67,0.00,CLR,,0.00,WeatherDisplay:10.37,2013-01-29 16:57:00,
2013-01-29 12:05:00,65.0,53.8,30.05,SSW,209,5.8,5.8,67,0.00,CLR,,0.00,WeatherDisplay:10.37,2013-01-29 17:05:00,
2013-01-29 12:10:00,65.5,53.4,30.05,SW,222,6.9,6.9,65,0.00,CLR,,0.00,WeatherDisplay:10.37,2013-01-29 17:10:00,
2013-01-29 12:15:00,65.8,54.1,30.04,West,270,3.5,3.5,66,0.00,CLR,,0.00,WeatherDisplay:10.37,2013-01-29 17:15:00,
2013-01-29 12:20:00,66.1,54.0,30.04,SSW,210,9.2,9.2,65,0.00,CLR,,0.00,WeatherDisplay:10.37,2013-01-29 17:20:00,
2013-01-29 12:25:00,66.2,53.7,30.03,SW,227,6.9,6.9,64,0.00,CLR,,0.00,WeatherDisplay:10.37,2013-01-29 17:25:00,
2013-01-29 12:30:00,66.3,53.8,30.04,SSW,206,8.1,8.1,64,0.00,CLR,,0.00,WeatherDisplay:10.37,2013-01-29 17:30:00,
2013-01-29 12:35:00,66.4,53.8,30.03,NW,313,4.6,4.6,64,0.00,CLR,,0.00,WeatherDisplay:10.37,2013-01-29 17:35:00,
2013-01-29 12:41:00,66.5,53.9,30.03,West,277,4.6,4.6,64,0.00,CLR,,0.00,WeatherDisplay:10.37,2013-01-29 17:41:00,
2013-01-29 12:46:00,66.5,53.9,30.02,SE,124,5.8,5.8,64,0.00,CLR,,0.00,WeatherDisplay:10.37,2013-01-29 17:46:00,
2013-01-29 12:51:00,66.7,54.1,30.02,West,278,8.1,8.1,64,0.00,CLR,,0.00,WeatherDisplay:10.37,2013-01-29 17:51:00,
2013-01-29 12:56:00,66.7,54.6,30.01,WSW,258,1.1,1.1,65,0.00,CLR,,0.00,WeatherDisplay:10.37,2013-01-29 17:56:00,
2013-01-29 13:01:00,66.7,54.1,30.01,South,191,6.9,6.9,64,0.00,CLR,,0.00,WeatherDisplay:10.37,2013-01-29 18:01:00,
2013-01-29 13:06:00,66.7,54.1,30.01,SSW,192,6.9,6.9,64,0.00,CLR,,0.00,WeatherDisplay:10.37,2013-01-29 18:06:00,
2013-01-29 13:11:00,66.8,54.7,30.01,South,189,8.1,8.1,65,0.00,CLR,,0.00,WeatherDisplay:10.37,2013-01-29 18:11:00,
2013-01-29 13:16:00,66.7,54.6,30.01,South,171,10.4,10.4,65,0.00,CLR,,0.00,WeatherDisplay:10.37,2013-01-29 18:16:00,
2013-01-29 13:21:00,66.8,54.2,30.00,SE,144,8.1,8.1,64,0.00,CLR,,0.00,WeatherDisplay:10.37,2013-01-29 18:21:00,
2013-01-29 13:26:00,66.8,54.7,30.00,South,181,9.2,9.2,65,0.00,CLR,,0.00,WeatherDisplay:10.37,2013-01-29 18:26:00,
2013-01-29 13:31:00,67.1,54.5,30.00,SSW,205,5.8,5.8,64,0.00,CLR,,0.00,WeatherDisplay:10.37,2013-01-29 18:31:00,
2013-01-29 13:36:00,67.4,54.8,30.00,SSW,208,8.3,8.3,64,0.00,CLR,,0.00,WeatherDisplay:10.37,2013-01-29 18:36:00,
2013-01-29 13:41:00,67.6,54.1,30.00,SSE,160,10.4,10.4,62,0.00,CLR,,0.00,WeatherDisplay:10.37,2013-01-29 18:41:00,
2013-01-29 13:46:00,68.2,54.7,30.00,SSW,195,6.9,6.9,62,0.00,CLR,,0.00,WeatherDisplay:10.37,2013-01-29 18:46:00,
2013-01-29 13:51:00,68.5,54.5,29.99,SSW,199,9.0,9.0,61,0.00,CLR,,0.00,WeatherDisplay:10.37,2013-01-29 18:51:00,
2013-01-29 13:56:00,68.4,54.4,29.99,WNW,282,8.1,8.1,61,0.00,CLR,,0.00,WeatherDisplay:10.37,2013-01-29 18:56:00,
2013-01-29 14:01:00,68.7,54.7,29.99,SW,219,4.6,4.6,61,0.00,CLR,,0.00,WeatherDisplay:10.37,2013-01-29 19:01:00,
2013-01-29 14:06:00,69.0,54.5,29.99,South,185,6.9,6.9,60,0.00,CLR,,0.00,WeatherDisplay:10.37,2013-01-29 19:06:00,
2013-01-29 14:11:00,68.9,54.4,29.98,South,171,5.8,5.8,60,0.00,CLR,,0.00,WeatherDisplay:10.37,2013-01-29 19:11:00,
2013-01-29 14:16:00,69.0,54.5,29.98,SSW,199,7.6,7.6,60,0.00,CLR,,0.00,WeatherDisplay:10.37,2013-01-29 19:16:00,
2013-01-29 14:21:00,69.3,54.4,29.98,South,184,9.8,9.8,59,0.00,CLR,,0.00,WeatherDisplay:10.37,2013-01-29 19:21:00,
2013-01-29 14:26:00,69.3,54.8,29.98,South,172,6.9,6.9,60,0.00,CLR,,0.00,WeatherDisplay:10.37,2013-01-29 19:26:00,
2013-01-29 14:31:00,69.5,54.5,29.98,SSW,209,10.4,10.4,59,0.00,CLR,,0.00,WeatherDisplay:10.37,2013-01-29 19:31:00,
2013-01-29 14:36:00,69.8,54.4,29.98,SW,215,9.6,9.6,58,0.00,CLR,,0.00,WeatherDisplay:10.37,2013-01-29 19:36:00,
2013-01-29 14:41:00,69.8,54.4,29.97,SSE,168,8.1,8.1,58,0.00,CLR,,0.00,WeatherDisplay:10.37,2013-01-29 19:41:00,
2013-01-29 14:46:00,70.0,54.1,29.97,SSW,199,9.2,9.2,57,0.00,CLR,,0.00,WeatherDisplay:10.37,2013-01-29 19:46:00,
2013-01-29 14:51:00,70.3,53.9,29.97,SSE,168,9.2,9.2,56,0.00,CLR,,0.00,WeatherDisplay:10.37,2013-01-29 19:51:00,
2013-01-29 14:56:00,70.5,53.1,29.97,WSW,240,9.2,9.2,54,0.00,CLR,,0.00,WeatherDisplay:10.37,2013-01-29 19:56:00,
2013-01-29 15:00:00,70.8,54.3,29.97,SSE,151,5.0,5.0,56,0.00,CLR,,0.00,WeatherDisplay:10.37,2013-01-29 20:00:00,
2013-01-29 15:05:00,70.6,53.6,29.97,SW,229,10.4,10.4,55,0.00,CLR,,0.00,WeatherDisplay:10.37,2013-01-29 20:05:00,
2013-01-29 15:10:00,70.5,53.6,29.97,SSW,202,9.6,9.6,55,0.00,CLR,,0.00,WeatherDisplay:10.37,2013-01-29 20:10:00,
2013-01-29 15:15:00,70.5,53.6,29.97,SW,232,10.4,10.4,55,0.00,CLR,,0.00,WeatherDisplay:10.37,2013-01-29 20:15:00,
2013-01-29 15:20:00,70.5,53.6,29.97,SSW,212,5.8,5.8,55,0.00,CLR,,0.00,WeatherDisplay:10.37,2013-01-29 20:20:00,
2013-01-29 15:25:00,70.9,53.4,29.97,SSW,208,6.9,6.9,54,0.00,CLR,,0.00,WeatherDisplay:10.37,2013-01-29 20:25:00,
2013-01-29 15:30:00,71.7,53.1,29.97,NNW,342,8.1,8.1,52,0.00,CLR,,0.00,WeatherDisplay:10.37,2013-01-29 20:30:00,
2013-01-29 15:35:00,72.2,52.5,29.97,WSW,258,10.4,10.4,50,0.00,CLR,,0.00,WeatherDisplay:10.37,2013-01-29 20:35:00,
2013-01-29 15:40:00,72.1,53.0,29.96,SSW,208,6.9,6.9,51,0.00,CLR,,0.00,WeatherDisplay:10.37,2013-01-29 20:40:00,
2013-01-29 15:45:00,72.1,52.4,29.96,WNW,294,11.5,11.5,50,0.00,CLR,,0.00,WeatherDisplay:10.37,2013-01-29 20:45:00,
2013-01-29 15:50:00,72.2,52.5,29.96,SW,217,9.2,9.2,50,0.00,CLR,,0.00,WeatherDisplay:10.37,2013-01-29 20:50:00,
2013-01-29 15:55:00,72.2,52.5,29.96,SSW,195,10.4,10.4,50,0.00,CLR,,0.00,WeatherDisplay:10.37,2013-01-29 20:55:00,
2013-01-29 16:00:00,71.8,52.7,29.96,South,176,6.9,6.9,51,0.00,CLR,,0.00,WeatherDisplay:10.37,2013-01-29 21:00:00,
2013-01-29 16:05:00,71.3,52.8,29.96,SW,233,11.1,11.1,52,0.00,CLR,,0.00,WeatherDisplay:10.37,2013-01-29 21:05:00,
2013-01-29 16:10:00,71.0,52.5,29.96,SW,236,6.9,6.9,52,0.00,CLR,,0.00,WeatherDisplay:10.37,2013-01-29 21:10:00,
2013-01-29 16:15:00,70.7,52.7,29.96,South,189,8.1,8.1,53,0.00,CLR,,0.00,WeatherDisplay:10.37,2013-01-29 21:15:00,
2013-01-29 16:20:00,70.4,53.0,29.96,WSW,241,4.8,4.8,54,0.00,CLR,,0.00,WeatherDisplay:10.37,2013-01-29 21:20:00,
2013-01-29 16:25:00,70.0,52.6,29.96,SSW,205,8.1,8.1,54,0.00,CLR,,0.00,WeatherDisplay:10.37,2013-01-29 21:25:00,
2013-01-29 16:30:00,69.7,52.8,29.96,SW,219,5.8,5.8,55,0.00,CLR,,0.00,WeatherDisplay:10.37,2013-01-29 21:30:00,
2013-01-29 16:35:00,69.4,53.0,29.96,SW,229,9.2,9.2,56,0.00,CLR,,0.00,WeatherDisplay:10.37,2013-01-29 21:35:00,
2013-01-29 16:40:00,69.1,52.7,29.96,SSE,164,10.4,10.4,56,0.00,CLR,,0.00,WeatherDisplay:10.37,2013-01-29 21:40:00,
2013-01-29 16:45:00,68.7,52.8,29.96,South,176,8.1,8.1,57,0.00,CLR,,0.00,WeatherDisplay:10.37,2013-01-29 21:45:00,
2013-01-29 16:50:00,68.5,52.7,29.96,SW,223,8.1,8.1,57,0.00,CLR,,0.00,WeatherDisplay:10.37,2013-01-29 21:50:00,
2013-01-29 16:55:00,68.3,52.9,29.96,SW,217,5.8,5.8,58,0.00,CLR,,0.00,WeatherDisplay:10.37,2013-01-29 21:55:00,
2013-01-29 17:00:00,68.1,52.8,29.96,South,175,6.9,6.9,58,0.00,CLR,,0.00,WeatherDisplay:10.37,2013-01-29 22:00:00,
2013-01-29 17:05:00,67.7,52.4,29.96,South,188,8.1,8.1,58,0.00,CLR,,0.00,WeatherDisplay:10.37,2013-01-29 22:05:00,
2013-01-29 17:10:00,67.7,52.9,29.96,SW,229,8.0,8.0,59,0.00,CLR,,0.00,WeatherDisplay:10.37,2013-01-29 22:10:00,
2013-01-29 17:15:00,67.5,52.7,29.95,SW,216,5.8,5.8,59,0.00,CLR,,0.00,WeatherDisplay:10.37,2013-01-29 22:15:00,
2013-01-29 17:20:00,67.3,52.5,29.95,SW,216,9.3,9.3,59,0.00,CLR,,0.00,WeatherDisplay:10.37,2013-01-29 22:20:00,
2013-01-29 17:25:00,67.3,52.5,29.96,SW,226,10.4,10.4,59,0.00,CLR,,0.00,WeatherDisplay:10.37,2013-01-29 22:25:00,
2013-01-29 17:30:00,67.5,52.7,29.95,SSE,167,10.1,10.1,59,0.00,CLR,,0.00,WeatherDisplay:10.37,2013-01-29 22:30:00,
2013-01-29 17:35:00,67.5,52.2,29.95,South,188,9.2,9.2,58,0.00,CLR,,0.00,WeatherDisplay:10.37,2013-01-29 22:35:00,
2013-01-29 17:40:00,67.4,52.6,29.95,SSE,162,6.9,6.9,59,0.00,CLR,,0.00,WeatherDisplay:10.37,2013-01-29 22:40:00,
2013-01-29 17:45:00,67.3,52.5,29.95,South,172,9.2,9.2,59,0.00,CLR,,0.00,WeatherDisplay:10.37,2013-01-29 22:45:00,
2013-01-29 17:50:00,67.1,52.7,29.95,SSW,202,4.6,4.6,60,0.00,CLR,,0.00,WeatherDisplay:10.37,2013-01-29 22:50:00,
2013-01-29 17:56:00,67.0,52.7,29.95,South,181,4.6,4.6,60,0.00,CLR,,0.00,WeatherDisplay:10.37,2013-01-29 22:56:00,
2013-01-29 18:01:00,66.7,52.8,29.95,SW,216,3.5,3.5,61,0.00,CLR,,0.00,WeatherDisplay:10.37,2013-01-29 23:01:00,
2013-01-29 18:06:00,66.3,52.9,29.95,SSW,195,3.6,3.6,62,0.00,CLR,,0.00,WeatherDisplay:10.37,2013-01-29 23:06:00,
2013-01-29 18:11:00,66.1,52.7,29.95,SW,236,4.6,4.6,62,0.00,CLR,,0.00,WeatherDisplay:10.37,2013-01-29 23:11:00,
2013-01-29 18:16:00,65.9,52.9,29.95,SSW,195,4.6,4.6,63,0.00,CLR,,0.00,WeatherDisplay:10.37,2013-01-29 23:16:00,
2013-01-29 18:21:00,65.8,52.9,29.95,SSW,210,3.5,3.5,63,0.00,CLR,,0.00,WeatherDisplay:10.37,2013-01-29 23:21:00,
2013-01-29 18:26:00,65.4,52.5,29.95,NE,56,3.5,3.5,63,0.00,CLR,,0.00,WeatherDisplay:10.37,2013-01-29 23:26:00,
2013-01-29 18:31:00,65.0,52.5,29.95,WSW,246,3.5,3.5,64,0.00,CLR,,0.00,WeatherDisplay:10.37,2013-01-29 23:31:00,
2013-01-29 18:36:00,64.5,52.5,29.95,South,174,3.5,3.5,65,0.00,CLR,,0.00,WeatherDisplay:10.37,2013-01-29 23:36:00,
2013-01-29 18:41:00,63.8,52.2,29.95,WSW,237,2.3,2.3,66,0.00,CLR,,0.00,WeatherDisplay:10.37,2013-01-29 23:41:00,
2013-01-29 18:46:00,63.2,52.1,29.95,WSW,250,0.0,0.0,67,0.00,CLR,,0.00,WeatherDisplay:10.37,2013-01-29 23:46:00,
2013-01-29 18:51:00,62.8,52.1,29.95,WSW,248,0.0,0.0,68,0.00,CLR,,0.00,WeatherDisplay:10.37,2013-01-29 23:51:00,
2013-01-29 18:56:00,62.3,52.0,29.95,SSW,198,0.0,0.0,69,0.00,CLR,,0.00,WeatherDisplay:10.37,2013-01-29 23:56:00,
2013-01-29 19:01:00,62.0,52.1,29.95,SSW,198,0.0,0.0,70,0.00,CLR,,0.00,WeatherDisplay:10.37,2013-01-30 00:01:00,
2013-01-29 19:06:00,61.7,51.8,29.95,SSW,198,0.0,0.0,70,0.00,CLR,,0.00,WeatherDisplay:10.37,2013-01-30 00:06:00,
2013-01-29 19:11:00,61.5,52.0,29.95,SSW,198,0.0,0.0,71,0.00,CLR,,0.00,WeatherDisplay:10.37,2013-01-30 00:11:00,
2013-01-29 19:16:00,61.1,51.6,29.95,SSW,198,0.0,0.0,71,0.00,CLR,,0.00,WeatherDisplay:10.37,2013-01-30 00:16:00,
2013-01-29 19:21:00,60.9,51.8,29.95,SSW,198,0.0,0.0,72,0.00,CLR,,0.00,WeatherDisplay:10.37,2013-01-30 00:21:00,
2013-01-29 19:26:00,60.5,51.4,29.95,South,179,0.0,0.0,72,0.00,CLR,,0.00,WeatherDisplay:10.37,2013-01-30 00:26:00,
2013-01-29 19:31:00,60.2,51.5,29.95,South,179,0.0,0.0,73,0.00,CLR,,0.00,WeatherDisplay:10.37,2013-01-30 00:31:00,
2013-01-29 19:36:00,59.9,51.6,29.94,South,179,0.0,0.0,74,0.00,CLR,,0.00,WeatherDisplay:10.37,2013-01-30 00:36:00,
2013-01-29 19:41:00,59.5,51.2,29.94,South,179,0.0,0.0,74,0.00,CLR,,0.00,WeatherDisplay:10.37,2013-01-30 00:41:00,
2013-01-29 19:46:00,59.2,51.3,29.95,South,179,0.0,0.0,75,0.00,CLR,,0.00,WeatherDisplay:10.37,2013-01-30 00:46:00,
2013-01-29 19:51:00,58.8,50.9,29.95,WNW,292,1.1,1.1,75,0.00,CLR,,0.00,WeatherDisplay:10.37,2013-01-30 00:51:00,
2013-01-29 19:56:00,58.5,51.0,29.95,WNW,284,0.0,0.0,76,0.00,CLR,,0.00,WeatherDisplay:10.37,2013-01-30 00:56:00,
2013-01-29 20:01:00,58.3,50.8,29.95,WNW,284,0.0,0.0,76,0.00,CLR,,0.00,WeatherDisplay:10.37,2013-01-30 01:01:00,
2013-01-29 20:06:00,58.0,50.5,29.95,WNW,284,0.0,0.0,76,0.00,CLR,,0.00,WeatherDisplay:10.37,2013-01-30 01:06:00,
2013-01-29 20:11:00,57.8,50.3,29.95,WNW,284,0.0,0.0,76,0.00,CLR,,0.00,WeatherDisplay:10.37,2013-01-30 01:11:00,
2013-01-29 20:16:00,57.5,50.0,29.95,WNW,284,0.0,0.0,76,0.00,CLR,,0.00,WeatherDisplay:10.37,2013-01-30 01:16:00,
2013-01-29 20:21:00,57.2,50.1,29.95,WNW,284,0.0,0.0,77,0.00,CLR,,0.00,WeatherDisplay:10.37,2013-01-30 01:21:00,
2013-01-29 20:26:00,56.8,50.0,29.95,WNW,284,0.0,0.0,78,0.00,CLR,,0.00,WeatherDisplay:10.37,2013-01-30 01:26:00,
2013-01-29 20:31:00,56.6,49.8,29.95,WNW,289,5.8,5.8,78,0.00,CLR,,0.00,WeatherDisplay:10.37,2013-01-30 01:31:00,
2013-01-29 20:36:00,56.8,50.0,29.95,South,171,6.9,6.9,78,0.00,CLR,,0.00,WeatherDisplay:10.37,2013-01-30 01:36:00,
2013-01-29 20:41:00,57.1,50.0,29.95,SSW,196,3.5,3.5,77,0.00,CLR,,0.00,WeatherDisplay:10.37,2013-01-30 01:41:00,
2013-01-29 20:46:00,57.4,49.9,29.95,South,188,5.8,5.8,76,0.00,CLR,,0.00,WeatherDisplay:10.37,2013-01-30 01:46:00,
2013-01-29 20:51:00,57.6,50.1,29.95,South,175,4.6,4.6,76,0.00,CLR,,0.00,WeatherDisplay:10.37,2013-01-30 01:51:00,
2013-01-29 20:56:00,57.6,49.7,29.95,SSE,157,8.1,8.1,75,0.00,CLR,,0.00,WeatherDisplay:10.37,2013-01-30 01:56:00,
2013-01-29 21:01:00,57.5,49.6,29.94,South,184,5.8,5.8,75,0.00,CLR,,0.00,WeatherDisplay:10.37,2013-01-30 02:01:00,
2013-01-29 21:06:00,58.0,49.0,29.94,WNW,284,11.5,11.5,72,0.00,CLR,,0.00,WeatherDisplay:10.37,2013-01-30 02:06:00,
2013-01-29 21:11:00,59.3,49.1,29.94,SW,229,9.2,9.2,69,0.00,CLR,,0.00,WeatherDisplay:10.37,2013-01-30 02:11:00,
2013-01-29 21:16:00,60.5,49.1,29.94,SW,233,11.5,11.5,66,0.00,CLR,,0.00,WeatherDisplay:10.37,2013-01-30 02:16:00,
2013-01-29 21:21:00,61.3,49.0,29.94,SSW,202,12.9,12.9,64,0.00,CLR,,0.00,WeatherDisplay:10.37,2013-01-30 02:21:00,
2013-01-29 21:26:00,61.5,49.2,29.94,SSW,209,6.9,6.9,64,0.00,CLR,,0.00,WeatherDisplay:10.37,2013-01-30 02:26:00,
2013-01-29 21:31:00,61.4,49.1,29.93,SSE,155,5.8,5.8,64,0.00,CLR,,0.00,WeatherDisplay:10.37,2013-01-30 02:31:00,
2013-01-29 21:36:00,61.1,48.8,29.93,WSW,237,11.5,11.5,64,0.00,CLR,,0.00,WeatherDisplay:10.37,2013-01-30 02:36:00,
2013-01-29 21:41:00,61.0,48.7,29.93,SSE,165,15.0,15.0,64,0.00,CLR,,0.00,WeatherDisplay:10.37,2013-01-30 02:41:00,
2013-01-29 21:46:00,60.9,48.6,29.93,SSW,196,9.2,9.2,64,0.00,CLR,,0.00,WeatherDisplay:10.37,2013-01-30 02:46:00,
2013-01-29 21:51:00,60.9,48.6,29.94,SW,232,10.7,10.7,64,0.00,CLR,,0.00,WeatherDisplay:10.37,2013-01-30 02:51:00,
2013-01-29 21:56:00,61.0,48.3,29.93,SSW,193,12.7,12.7,63,0.00,CLR,,0.00,WeatherDisplay:10.37,2013-01-30 02:56:00,
2013-01-29 22:01:00,61.2,48.1,29.93,SE,141,13.8,13.8,62,0.00,CLR,,0.00,WeatherDisplay:10.37,2013-01-30 03:01:00,
2013-01-29 22:06:00,61.3,48.6,29.94,SSE,164,12.7,12.7,63,0.00,CLR,,0.00,WeatherDisplay:10.37,2013-01-30 03:06:00,
2013-01-29 22:11:00,61.3,48.6,29.93,WSW,251,7.4,7.8,63,0.00,CLR,,0.00,WeatherDisplay:10.37,2013-01-30 03:11:00,
2013-01-29 22:16:00,61.2,48.9,29.93,West,261,10.4,10.4,64,0.00,CLR,,0.00,WeatherDisplay:10.37,2013-01-30 03:16:00,
2013-01-29 22:21:00,61.4,49.1,29.93,SW,220,12.7,12.7,64,0.00,CLR,,0.00,WeatherDisplay:10.37,2013-01-30 03:21:00,
2013-01-29 22:26:00,61.3,49.0,29.93,SW,236,9.2,9.2,64,0.00,CLR,,0.00,WeatherDisplay:10.37,2013-01-30 03:26:00,
2013-01-29 22:31:00,61.3,49.0,29.94,WSW,250,9.2,9.2,64,0.00,CLR,,0.00,WeatherDisplay:10.37,2013-01-30 03:31:00,
2013-01-29 22:36:00,61.3,49.4,29.93,SSW,196,10.4,10.4,65,0.00,CLR,,0.00,WeatherDisplay:10.37,2013-01-30 03:36:00,
2013-01-29 22:41:00,61.1,49.2,29.93,SW,224,9.2,9.2,65,0.00,CLR,,0.00,WeatherDisplay:10.37,2013-01-30 03:41:00,
2013-01-29 22:46:00,61.0,49.6,29.93,West,261,5.8,5.8,66,0.00,CLR,,0.00,WeatherDisplay:10.37,2013-01-30 03:46:00,
2013-01-29 22:51:00,60.8,49.4,29.93,East,97,2.3,2.3,66,0.00,CLR,,0.00,WeatherDisplay:10.37,2013-01-30 03:51:00,
2013-01-29 22:56:00,59.6,48.6,29.92,NE,44,3.5,3.5,67,0.00,CLR,,0.00,WeatherDisplay:10.37,2013-01-30 03:56:00,
2013-01-29 23:02:00,58.4,48.3,29.92,NW,326,0.0,0.0,69,0.00,CLR,,0.00,WeatherDisplay:10.37,2013-01-30 04:02:00,
2013-01-29 23:07:00,57.7,48.4,29.92,NW,326,0.0,0.0,71,0.00,CLR,,0.00,WeatherDisplay:10.37,2013-01-30 04:07:00,
2013-01-29 23:12:00,57.1,48.2,29.92,NW,326,0.0,0.0,72,0.00,CLR,,0.00,WeatherDisplay:10.37,2013-01-30 04:12:00,
2013-01-29 23:17:00,56.5,47.9,29.92,NW,326,0.0,0.0,73,0.00,CLR,,0.00,WeatherDisplay:10.37,2013-01-30 04:17:00,
2013-01-29 23:22:00,56.0,47.8,29.92,NW,326,0.0,0.0,74,0.00,CLR,,0.00,WeatherDisplay:10.37,2013-01-30 04:22:00,
2013-01-29 23:27:00,55.6,47.8,29.92,NW,326,0.0,0.0,75,0.00,CLR,,0.00,WeatherDisplay:10.37,2013-01-30 04:27:00,
2013-01-29 23:32:00,55.3,47.9,29.91,NW,326,0.0,0.0,76,0.00,CLR,,0.00,WeatherDisplay:10.37,2013-01-30 04:32:00,
2013-01-29 23:37:00,55.1,47.7,29.91,NW,326,0.0,0.0,76,0.00,CLR,,0.00,WeatherDisplay:10.37,2013-01-30 04:37:00,
2013-01-29 23:42:00,54.7,47.6,29.91,NW,326,0.0,0.0,77,0.00,CLR,,0.00,WeatherDisplay:10.37,2013-01-30 04:42:00,
2013-01-29 23:47:00,54.4,47.7,29.91,NW,326,0.0,0.0,78,0.00,CLR,,0.00,WeatherDisplay:10.37,2013-01-30 04:47:00,
2013-01-29 23:52:00,54.2,47.5,29.91,NW,326,0.0,0.0,78,0.00,CLR,,0.00,WeatherDisplay:10.37,2013-01-30 04:52:00,
2013-01-29 23:57:00,54.0,47.3,29.91,NW,326,0.0,0.0,78,0.00,CLR,,0.00,WeatherDisplay:10.37,2013-01-30 04:57:00,